createdAt,value
2023-04-04T00:00:47.137Z,16.22
2023-04-04T00:01:47.157Z,16.27
2023-04-04T00:02:47.248Z,16.27
2023-04-04T00:03:47.406Z,16.27
2023-04-04T00:04:47.382Z,16.27
2023-04-04T00:05:47.356Z,16.27
2023-04-04T00:06:47.404Z,16.27
2023-04-04T00:07:47.451Z,16.25
2023-04-04T00:08:47.542Z,16.22
2023-04-04T00:09:47.581Z,16.17
2023-04-04T00:10:47.645Z,16.13
2023-04-04T00:11:47.722Z,16.19
2023-04-04T00:12:47.741Z,16.15
2023-04-04T00:13:47.766Z,16.22
2023-04-04T00:14:47.831Z,16.13
2023-04-04T00:15:47.897Z,16.11
2023-04-04T00:16:47.910Z,16.07
2023-04-04T00:17:48.000Z,16.03
2023-04-04T00:18:48.031Z,16.10
2023-04-04T00:19:48.064Z,16.15
2023-04-04T00:20:48.154Z,16.09
2023-04-04T00:21:48.181Z,16.15
2023-04-04T00:22:48.227Z,16.13
2023-04-04T00:23:48.296Z,16.07
2023-04-04T00:24:48.306Z,16.08
2023-04-04T00:25:48.362Z,16.04
2023-04-04T00:26:48.434Z,16.02
2023-04-04T00:27:48.467Z,15.98
2023-04-04T00:28:48.534Z,16.04
2023-04-04T00:29:48.613Z,16.03
2023-04-04T00:30:48.672Z,16.06
2023-04-04T00:31:48.739Z,16.04
2023-04-04T00:32:48.819Z,15.95
2023-04-04T00:33:48.811Z,15.98
2023-04-04T00:34:48.875Z,15.96
2023-04-04T00:35:49.009Z,15.99
2023-04-04T00:36:48.985Z,15.95
2023-04-04T00:37:49.005Z,15.89
2023-04-04T00:38:49.080Z,15.92
2023-04-04T00:39:49.143Z,15.95
2023-04-04T00:40:49.216Z,15.90
2023-04-04T00:41:49.273Z,15.93
2023-04-04T00:42:49.293Z,15.89
2023-04-04T00:43:49.352Z,15.83
2023-04-04T00:44:49.420Z,15.87
2023-04-04T00:45:49.478Z,15.92
2023-04-04T00:46:50.506Z,15.86
2023-04-04T00:47:49.598Z,15.89
2023-04-04T00:48:49.490Z,15.81
2023-04-04T00:49:49.501Z,15.87
2023-04-04T00:50:49.470Z,15.81
2023-04-04T00:51:49.479Z,15.77
2023-04-04T00:52:49.500Z,15.81
2023-04-04T00:53:49.442Z,15.81
2023-04-04T00:54:49.443Z,15.86
2023-04-04T00:55:49.443Z,15.87
2023-04-04T00:56:49.427Z,15.84
2023-04-04T00:57:49.445Z,15.84
2023-04-04T00:58:52.494Z,15.81
2023-04-04T00:59:49.404Z,15.78
2023-04-04T01:00:49.456Z,15.74
2023-04-04T01:01:49.429Z,15.75
2023-04-04T01:02:49.459Z,15.74
2023-04-04T01:03:49.430Z,15.72
2023-04-04T01:04:49.376Z,15.77
2023-04-04T01:05:49.390Z,15.78
2023-04-04T01:06:49.377Z,15.80
2023-04-04T01:07:49.364Z,15.75
2023-04-04T01:08:49.363Z,15.73
2023-04-04T01:09:49.348Z,15.72
2023-04-04T01:10:49.326Z,15.71
2023-04-04T01:11:49.324Z,15.72
2023-04-04T01:12:49.303Z,15.67
2023-04-04T01:13:49.326Z,15.69
2023-04-04T01:14:49.304Z,15.67
2023-04-04T01:15:49.311Z,15.69
2023-04-04T01:16:49.358Z,15.67
2023-04-04T01:17:49.304Z,15.68
2023-04-04T01:18:49.279Z,15.66
2023-04-04T01:19:49.293Z,15.64
2023-04-04T01:20:49.260Z,15.67
2023-04-04T01:21:49.272Z,15.63
2023-04-04T01:22:49.297Z,15.61
2023-04-04T01:23:49.220Z,15.66
2023-04-04T01:24:49.254Z,15.61
2023-04-04T01:25:49.247Z,15.66
2023-04-04T01:26:49.237Z,15.66
2023-04-04T01:27:49.218Z,15.58
2023-04-04T01:28:49.237Z,15.57
2023-04-04T01:29:49.206Z,15.57
2023-04-04T01:30:49.213Z,15.61
2023-04-04T01:31:49.178Z,15.61
2023-04-04T01:32:49.217Z,15.61
2023-04-04T01:33:49.196Z,15.60
2023-04-04T01:34:49.183Z,15.58
2023-04-04T01:35:49.189Z,15.58
2023-04-04T01:36:49.223Z,15.55
2023-04-04T01:37:49.132Z,15.54
2023-04-04T01:38:49.210Z,15.55
2023-04-04T01:39:49.259Z,15.50
2023-04-04T01:40:49.299Z,15.51
2023-04-04T01:41:49.381Z,15.50
2023-04-04T01:42:49.510Z,15.58
2023-04-04T01:43:49.503Z,15.49
2023-04-04T01:44:49.539Z,15.50
2023-04-04T01:45:49.743Z,15.52
2023-04-04T01:46:49.650Z,15.51
2023-04-04T01:47:49.754Z,15.48
2023-04-04T01:48:49.761Z,15.49
2023-04-04T01:49:49.835Z,15.49
2023-04-04T01:50:49.904Z,15.46
2023-04-04T01:51:49.941Z,15.48
2023-04-04T01:52:50.044Z,15.49
2023-04-04T01:53:50.073Z,15.51
2023-04-04T01:54:50.117Z,15.49
2023-04-04T01:55:50.192Z,15.44
2023-04-04T01:56:50.242Z,15.46
2023-04-04T01:57:50.304Z,15.44
2023-04-04T01:58:50.379Z,15.46
2023-04-04T01:59:50.399Z,15.49
2023-04-04T02:00:50.481Z,15.46
2023-04-04T02:01:50.621Z,15.46
2023-04-04T02:02:50.674Z,15.45
2023-04-04T02:03:50.678Z,15.44
2023-04-04T02:04:50.693Z,15.45
2023-04-04T02:05:50.755Z,15.44
2023-04-04T02:06:50.775Z,15.48
2023-04-04T02:07:50.878Z,15.43
2023-04-04T02:08:50.887Z,15.46
2023-04-04T02:09:50.978Z,15.45
2023-04-04T02:10:51.003Z,15.45
2023-04-04T02:11:51.093Z,15.45
2023-04-04T02:12:51.160Z,15.44
2023-04-04T02:13:51.178Z,15.39
2023-04-04T02:14:51.234Z,15.45
2023-04-04T02:15:51.336Z,15.42
2023-04-04T02:16:51.359Z,15.42
2023-04-04T02:17:51.561Z,15.44
2023-04-04T02:18:51.471Z,15.44
2023-04-04T02:19:51.507Z,15.39
2023-04-04T02:20:51.566Z,15.44
2023-04-04T02:21:51.613Z,15.46
2023-04-04T02:22:51.676Z,15.45
2023-04-04T02:23:51.751Z,15.44
2023-04-04T02:24:51.826Z,15.42
2023-04-04T02:25:51.857Z,15.39
2023-04-04T02:26:51.916Z,15.42
2023-04-04T02:27:51.961Z,15.41
2023-04-04T02:28:52.038Z,15.45
2023-04-04T02:29:52.104Z,15.44
2023-04-04T02:30:52.155Z,15.44
2023-04-04T02:31:52.203Z,15.45
2023-04-04T02:32:52.284Z,15.39
2023-04-04T02:33:52.347Z,15.40
2023-04-04T02:34:52.353Z,15.45
2023-04-04T02:35:52.491Z,15.41
2023-04-04T02:36:52.495Z,15.34
2023-04-04T02:37:52.512Z,15.33
2023-04-04T02:38:52.583Z,15.34
2023-04-04T02:39:52.641Z,15.44
2023-04-04T02:40:52.663Z,15.42
2023-04-04T02:41:52.756Z,15.34
2023-04-04T02:42:52.785Z,15.37
2023-04-04T02:43:52.860Z,15.36
2023-04-04T02:44:52.901Z,15.36
2023-04-04T02:45:52.964Z,15.31
2023-04-04T02:46:53.083Z,15.39
2023-04-04T02:47:53.179Z,15.34
2023-04-04T02:48:53.130Z,15.39
2023-04-04T02:49:53.197Z,15.38
2023-04-04T02:50:53.265Z,15.34
2023-04-04T02:51:53.370Z,15.39
2023-04-04T02:52:53.367Z,15.33
2023-04-04T02:53:53.428Z,15.31
2023-04-04T02:54:53.457Z,15.36
2023-04-04T02:55:53.528Z,15.33
2023-04-04T02:56:53.601Z,15.31
2023-04-04T02:57:53.660Z,15.34
2023-04-04T02:58:53.743Z,15.28
2023-04-04T02:59:53.763Z,15.25
2023-04-04T03:00:53.822Z,15.33
2023-04-04T03:01:53.920Z,15.28
2023-04-04T03:02:54.044Z,15.33
2023-04-04T03:03:54.211Z,15.33
2023-04-04T03:04:54.055Z,15.33
2023-04-04T03:05:54.110Z,15.33
2023-04-04T03:06:54.172Z,15.39
2023-04-04T03:07:54.213Z,15.34
2023-04-04T03:08:54.265Z,15.36
2023-04-04T03:09:54.338Z,15.41
2023-04-04T03:10:54.383Z,15.41
2023-04-04T03:11:54.436Z,15.34
2023-04-04T03:12:54.494Z,15.34
2023-04-04T03:13:54.541Z,15.34
2023-04-04T03:14:54.610Z,15.30
2023-04-04T03:15:54.673Z,15.30
2023-04-04T03:16:54.844Z,15.31
2023-04-04T03:17:54.818Z,15.33
2023-04-04T03:18:54.813Z,15.33
2023-04-04T03:19:54.855Z,15.31
2023-04-04T03:20:54.934Z,15.33
2023-04-04T03:21:55.001Z,15.33
2023-04-04T03:22:55.048Z,15.31
2023-04-04T03:23:55.089Z,15.28
2023-04-04T03:24:55.119Z,15.34
2023-04-04T03:25:55.260Z,15.28
2023-04-04T03:26:55.262Z,15.33
2023-04-04T03:27:55.324Z,15.30
2023-04-04T03:28:55.384Z,15.30
2023-04-04T03:29:55.445Z,15.33
2023-04-04T03:30:55.473Z,15.31
2023-04-04T03:31:55.663Z,15.33
2023-04-04T03:32:55.727Z,15.24
2023-04-04T03:33:55.636Z,15.27
2023-04-04T03:34:55.705Z,15.27
2023-04-04T03:35:55.803Z,15.28
2023-04-04T03:36:55.792Z,15.27
2023-04-04T03:37:55.857Z,15.27
2023-04-04T03:38:55.898Z,15.31
2023-04-04T03:39:55.943Z,15.31
2023-04-04T03:40:56.018Z,15.27
2023-04-04T03:41:56.062Z,15.31
2023-04-04T03:42:56.148Z,15.22
2023-04-04T03:43:56.199Z,15.22
2023-04-04T03:44:56.256Z,15.22
2023-04-04T03:45:56.480Z,15.24
2023-04-04T03:46:56.689Z,15.25
2023-04-04T03:47:56.643Z,15.25
2023-04-04T03:48:56.394Z,15.19
2023-04-04T03:49:56.438Z,15.22
2023-04-04T03:50:56.470Z,15.21
2023-04-04T03:51:56.534Z,15.21
2023-04-04T03:52:56.588Z,15.18
2023-04-04T03:53:56.631Z,15.16
2023-04-04T03:54:56.709Z,15.12
2023-04-04T03:55:56.746Z,15.16
2023-04-04T03:56:56.826Z,15.15
2023-04-04T03:57:56.901Z,15.19
2023-04-04T03:58:56.972Z,15.10
2023-04-04T03:59:57.008Z,15.10
2023-04-04T04:00:57.052Z,15.14
2023-04-04T04:01:57.086Z,15.16
2023-04-04T04:02:57.230Z,15.14
2023-04-04T04:03:57.239Z,15.14
2023-04-04T04:04:57.266Z,15.14
2023-04-04T04:05:57.360Z,15.14
2023-04-04T04:06:57.419Z,15.12
2023-04-04T04:07:57.481Z,15.10
2023-04-04T04:08:57.515Z,15.12
2023-04-04T04:09:57.676Z,15.14
2023-04-04T04:10:57.642Z,15.13
2023-04-04T04:11:57.673Z,15.14
2023-04-04T04:12:57.750Z,15.13
2023-04-04T04:13:57.825Z,15.14
2023-04-04T04:14:57.854Z,15.16
2023-04-04T04:15:57.986Z,15.12
2023-04-04T04:16:57.974Z,15.13
2023-04-04T04:17:58.080Z,15.12
2023-04-04T04:18:58.112Z,15.08
2023-04-04T04:19:58.164Z,15.10
2023-04-04T04:20:58.192Z,15.10
2023-04-04T04:21:58.265Z,15.08
2023-04-04T04:22:58.341Z,15.08
2023-04-04T04:23:58.387Z,15.06
2023-04-04T04:24:58.427Z,15.08
2023-04-04T04:25:58.616Z,15.12
2023-04-04T04:26:58.570Z,15.12
2023-04-04T04:27:58.635Z,15.08
2023-04-04T04:28:58.659Z,15.14
2023-04-04T04:29:58.746Z,15.16
2023-04-04T04:30:58.806Z,15.22
2023-04-04T04:31:58.991Z,15.16
2023-04-04T04:32:58.946Z,15.15
2023-04-04T04:33:58.967Z,15.14
2023-04-04T04:34:59.015Z,15.25
2023-04-04T04:36:00.262Z,15.24
2023-04-04T04:36:59.145Z,15.21
2023-04-04T04:37:59.198Z,15.19
2023-04-04T04:38:59.277Z,15.19
2023-04-04T04:39:59.276Z,15.18
2023-04-04T04:40:59.343Z,15.18
2023-04-04T04:41:59.390Z,15.17
2023-04-04T04:42:59.451Z,15.15
2023-04-04T04:43:59.491Z,15.14
2023-04-04T04:44:59.513Z,15.06
2023-04-04T04:45:59.577Z,15.08
2023-04-04T04:46:59.615Z,15.09
2023-04-04T04:47:59.688Z,15.08
2023-04-04T04:48:59.714Z,15.09
2023-04-04T04:49:59.732Z,15.02
2023-04-04T04:50:59.735Z,14.99
2023-04-04T04:51:59.773Z,15.02
2023-04-04T04:52:59.824Z,15.01
2023-04-04T04:53:59.883Z,15.02
2023-04-04T04:54:59.909Z,14.98
2023-04-04T04:55:59.956Z,15.06
2023-04-04T04:56:59.934Z,14.95
2023-04-04T04:57:59.998Z,14.92
2023-04-04T04:59:00.126Z,14.93
2023-04-04T05:00:00.035Z,14.92
2023-04-04T05:02:19.087Z,14.95
2023-04-04T05:03:19.018Z,14.92
2023-04-04T05:04:18.967Z,14.95
2023-04-04T05:05:19.012Z,14.93
2023-04-04T05:06:18.965Z,14.94
2023-04-04T05:07:18.971Z,14.95
2023-04-04T05:08:18.965Z,14.94
2023-04-04T05:09:19.003Z,14.94
2023-04-04T05:10:19.648Z,14.92
2023-04-04T05:11:18.959Z,14.91
2023-04-04T05:12:18.932Z,14.91
2023-04-04T05:13:18.924Z,14.96
2023-04-04T05:14:18.911Z,14.91
2023-04-04T05:15:18.902Z,14.96
2023-04-04T05:16:18.924Z,14.96
2023-04-04T05:17:18.892Z,14.93
2023-04-04T05:18:18.906Z,14.91
2023-04-04T05:19:18.954Z,14.91
2023-04-04T05:20:18.873Z,14.91
2023-04-04T05:21:18.950Z,14.90
2023-04-04T05:22:18.847Z,14.91
2023-04-04T05:23:18.852Z,14.97
2023-04-04T05:24:18.832Z,14.91
2023-04-04T05:25:18.852Z,14.91
2023-04-04T05:26:18.838Z,14.90
2023-04-04T05:27:18.851Z,14.86
2023-04-04T05:28:18.797Z,14.91
2023-04-04T05:29:18.842Z,14.91
2023-04-04T05:30:18.816Z,14.91
2023-04-04T05:31:18.854Z,14.85
2023-04-04T05:32:18.791Z,14.91
2023-04-04T05:33:18.785Z,14.87
2023-04-04T05:34:18.763Z,14.90
2023-04-04T05:35:18.834Z,14.90
2023-04-04T05:36:18.849Z,14.90
2023-04-04T05:37:18.738Z,14.88
2023-04-04T05:38:18.747Z,14.87
2023-04-04T05:39:18.780Z,14.84
2023-04-04T05:40:18.748Z,14.85
2023-04-04T05:41:18.691Z,14.93
2023-04-04T05:42:18.724Z,14.90
2023-04-04T05:43:18.757Z,14.87
2023-04-04T05:44:18.691Z,14.91
2023-04-04T05:45:18.687Z,14.88
2023-04-04T05:46:25.755Z,14.88
2023-04-04T05:47:18.664Z,14.84
2023-04-04T05:48:18.680Z,14.91
2023-04-04T05:49:18.671Z,14.85
2023-04-04T05:50:18.665Z,14.87
2023-04-04T05:51:18.680Z,14.87
2023-04-04T05:52:18.692Z,14.84
2023-04-04T05:53:18.652Z,14.88
2023-04-04T05:54:18.660Z,14.81
2023-04-04T05:55:18.639Z,14.84
2023-04-04T05:56:18.644Z,14.85
2023-04-04T05:57:18.619Z,14.84
2023-04-04T05:58:18.648Z,14.84
2023-04-04T06:00:18.595Z,14.84
2023-04-04T06:01:18.622Z,14.85
2023-04-04T06:02:18.631Z,14.82
2023-04-04T06:03:21.691Z,14.80
2023-04-04T06:04:18.581Z,14.83
2023-04-04T06:05:18.575Z,14.81
2023-04-04T06:06:18.623Z,14.74
2023-04-04T06:07:18.557Z,14.80
2023-04-04T06:08:18.565Z,14.75
2023-04-04T06:09:18.572Z,14.81
2023-04-04T06:10:18.541Z,14.80
2023-04-04T06:11:18.524Z,14.83
2023-04-04T06:12:18.520Z,14.83
2023-04-04T06:13:18.502Z,14.84
2023-04-04T06:14:18.508Z,14.86
2023-04-04T06:15:18.471Z,14.78
2023-04-04T06:16:18.568Z,14.84
2023-04-04T06:17:18.450Z,14.84
2023-04-04T06:18:18.462Z,14.80
2023-04-04T06:19:20.109Z,14.84
2023-04-04T06:20:18.439Z,14.83
2023-04-04T06:21:18.473Z,14.81
2023-04-04T06:22:18.429Z,14.80
2023-04-04T06:23:18.421Z,14.77
2023-04-04T06:24:18.412Z,14.76
2023-04-04T06:25:18.469Z,14.74
2023-04-04T06:26:18.397Z,14.77
2023-04-04T06:27:18.400Z,14.76
2023-04-04T06:28:18.421Z,14.79
2023-04-04T06:29:18.418Z,14.76
2023-04-04T06:30:18.382Z,14.71
2023-04-04T06:31:18.408Z,14.82
2023-04-04T06:32:18.370Z,14.79
2023-04-04T06:33:18.328Z,14.79
2023-04-04T06:34:18.352Z,14.73
2023-04-04T06:35:20.098Z,14.79
2023-04-04T06:36:18.438Z,14.68
2023-04-04T06:37:18.376Z,14.74
2023-04-04T06:38:18.333Z,14.78
2023-04-04T06:39:18.316Z,14.81
2023-04-04T06:40:18.324Z,14.73
2023-04-04T06:41:18.302Z,14.79
2023-04-04T06:42:18.286Z,14.73
2023-04-04T06:43:18.303Z,14.70
2023-04-04T06:44:18.383Z,14.70
2023-04-04T06:45:18.420Z,14.70
2023-04-04T06:46:18.488Z,14.71
2023-04-04T06:47:18.574Z,14.70
2023-04-04T06:48:18.580Z,14.73
2023-04-04T06:49:18.608Z,14.73
2023-04-04T06:50:18.661Z,14.76
2023-04-04T06:51:18.732Z,14.75
2023-04-04T06:52:18.862Z,14.79
2023-04-04T06:53:18.849Z,14.75
2023-04-04T06:54:18.923Z,14.79
2023-04-04T06:55:19.051Z,14.73
2023-04-04T06:56:19.073Z,14.79
2023-04-04T06:57:19.124Z,14.76
2023-04-04T06:58:19.173Z,14.78
2023-04-04T06:59:19.258Z,14.76
2023-04-04T07:00:19.273Z,14.84
2023-04-04T07:01:19.368Z,14.80
2023-04-04T07:02:19.420Z,14.75
2023-04-04T07:03:19.529Z,14.78
2023-04-04T07:04:19.476Z,14.80
2023-04-04T07:05:19.503Z,14.80
2023-04-04T07:06:19.599Z,14.87
2023-04-04T07:07:19.671Z,14.89
2023-04-04T07:08:19.666Z,14.83
2023-04-04T07:09:28.880Z,14.86
2023-04-04T07:10:20.716Z,14.84
2023-04-04T07:11:19.687Z,14.85
2023-04-04T07:12:19.703Z,14.80
2023-04-04T07:13:19.705Z,14.85
2023-04-04T07:14:19.673Z,14.83
2023-04-04T07:15:19.658Z,14.89
2023-04-04T07:16:19.738Z,14.85
2023-04-04T07:17:24.574Z,14.80
2023-04-04T07:18:20.658Z,14.77
2023-04-04T07:19:19.678Z,14.76
2023-04-04T07:20:19.649Z,14.76
2023-04-04T07:21:19.623Z,14.77
2023-04-04T07:22:19.657Z,14.74
2023-04-04T07:23:19.642Z,14.77
2023-04-04T07:24:19.599Z,14.77
2023-04-04T07:25:19.619Z,14.73
2023-04-04T07:26:19.597Z,14.79
2023-04-04T07:27:19.621Z,14.70
2023-04-04T07:28:19.594Z,14.73
2023-04-04T07:29:19.648Z,14.80
2023-04-04T07:30:19.607Z,14.76
2023-04-04T07:31:19.674Z,14.73
2023-04-04T07:32:19.588Z,14.74
2023-04-04T07:33:19.567Z,14.74
2023-04-04T07:34:19.589Z,14.74
2023-04-04T07:35:19.592Z,14.85
2023-04-04T07:36:19.670Z,14.77
2023-04-04T07:37:19.630Z,14.73
2023-04-04T07:38:19.681Z,14.73
2023-04-04T07:39:19.667Z,14.74
2023-04-04T07:40:19.710Z,14.71
2023-04-04T07:41:19.716Z,14.70
2023-04-04T07:42:19.736Z,14.70
2023-04-04T07:43:19.748Z,14.67
2023-04-04T07:44:19.746Z,14.67
2023-04-04T07:45:19.778Z,14.70
2023-04-04T07:46:19.863Z,14.67
2023-04-04T07:47:19.845Z,14.64
2023-04-04T07:48:21.763Z,14.67
2023-04-04T07:49:19.841Z,14.61
2023-04-04T07:50:19.810Z,14.64
2023-04-04T07:51:19.826Z,14.63
2023-04-04T07:52:19.817Z,14.64
2023-04-04T07:53:19.810Z,14.63
2023-04-04T07:54:19.769Z,14.60
2023-04-04T07:55:19.857Z,14.58
2023-04-04T07:56:19.800Z,14.62
2023-04-04T07:57:19.760Z,14.65
2023-04-04T07:58:19.802Z,14.62
2023-04-04T07:59:19.845Z,14.60
2023-04-04T08:00:19.751Z,14.66
2023-04-04T08:01:19.763Z,14.65
2023-04-04T08:02:19.816Z,14.65
2023-04-04T08:03:20.004Z,14.58
2023-04-04T08:04:19.765Z,14.67
2023-04-04T08:05:19.749Z,14.68
2023-04-04T08:06:19.743Z,14.65
2023-04-04T08:07:19.729Z,14.65
2023-04-04T08:08:19.714Z,14.69
2023-04-04T08:09:19.716Z,14.66
2023-04-04T08:10:19.680Z,14.63
2023-04-04T08:11:19.727Z,14.69
2023-04-04T08:12:19.694Z,14.68
2023-04-04T08:13:19.694Z,14.68
2023-04-04T08:14:19.647Z,14.68
2023-04-04T08:15:19.656Z,14.61
2023-04-04T08:16:19.730Z,14.67
2023-04-04T08:17:19.674Z,14.67
2023-04-04T08:18:19.666Z,14.67
2023-04-04T08:19:19.638Z,14.70
2023-04-04T08:20:19.670Z,14.68
2023-04-04T08:21:19.665Z,14.64
2023-04-04T08:22:19.655Z,14.64
2023-04-04T08:23:19.612Z,14.65
2023-04-04T08:24:19.628Z,14.61
2023-04-04T08:25:19.623Z,14.59
2023-04-04T08:26:19.581Z,14.56
2023-04-04T08:27:19.590Z,14.59
2023-04-04T08:28:19.626Z,14.55
2023-04-04T08:29:19.595Z,14.49
2023-04-04T08:30:20.141Z,14.55
2023-04-04T08:31:19.777Z,14.55
2023-04-04T08:32:19.570Z,14.50
2023-04-04T08:33:19.663Z,14.56
2023-04-04T08:34:19.547Z,14.50
2023-04-04T08:35:19.505Z,14.49
2023-04-04T08:36:19.581Z,14.43
2023-04-04T08:37:19.524Z,14.38
2023-04-04T08:38:19.505Z,14.34
2023-04-04T08:39:19.512Z,14.43
2023-04-04T08:40:19.521Z,14.35
2023-04-04T08:41:19.547Z,14.28
2023-04-04T08:42:19.477Z,14.23
2023-04-04T08:43:19.561Z,14.29
2023-04-04T08:44:19.503Z,14.20
2023-04-04T08:45:19.530Z,14.20
2023-04-04T08:46:19.486Z,14.19
2023-04-04T08:47:19.470Z,14.14
2023-04-04T08:48:19.477Z,14.17
2023-04-04T08:49:19.486Z,14.16
2023-04-04T08:50:19.424Z,14.11
2023-04-04T08:51:19.447Z,14.07
2023-04-04T08:52:19.606Z,14.10
2023-04-04T08:53:19.400Z,14.07
2023-04-04T08:54:19.422Z,14.07
2023-04-04T08:55:19.402Z,14.13
2023-04-04T08:56:19.377Z,14.05
2023-04-04T08:57:19.391Z,14.10
2023-04-04T08:58:19.394Z,14.04
2023-04-04T08:59:19.407Z,14.05
2023-04-04T09:00:19.330Z,14.09
2023-04-04T09:01:19.390Z,14.09
2023-04-04T09:02:19.377Z,14.04
2023-04-04T09:03:19.346Z,14.01
2023-04-04T09:04:19.334Z,13.99
2023-04-04T09:05:19.366Z,14.02
2023-04-04T09:06:19.320Z,14.02
2023-04-04T09:07:19.311Z,13.96
2023-04-04T09:08:19.521Z,14.04
2023-04-04T09:09:19.301Z,14.01
2023-04-04T09:10:19.387Z,13.93
2023-04-04T09:11:19.395Z,13.96
2023-04-04T09:12:19.433Z,13.93
2023-04-04T09:13:19.425Z,13.92
2023-04-04T09:14:19.465Z,13.82
2023-04-04T09:15:19.597Z,13.86
2023-04-04T09:16:19.557Z,13.87
2023-04-04T09:17:19.583Z,13.84
2023-04-04T09:18:19.607Z,13.89
2023-04-04T09:19:19.646Z,13.84
2023-04-04T09:20:19.712Z,13.81
2023-04-04T09:21:19.691Z,13.87
2023-04-04T09:22:19.684Z,13.89
2023-04-04T09:23:19.752Z,13.90
2023-04-04T09:24:19.779Z,13.87
2023-04-04T09:25:19.924Z,13.86
2023-04-04T09:26:19.826Z,13.87
2023-04-04T09:27:19.901Z,13.93
2023-04-04T09:28:19.922Z,13.88
2023-04-04T09:29:19.929Z,13.92
2023-04-04T09:30:19.963Z,13.93
2023-04-04T09:31:19.989Z,13.92
2023-04-04T09:32:19.974Z,13.90
2023-04-04T09:33:20.094Z,13.88
2023-04-04T09:34:20.042Z,13.90
2023-04-04T09:35:20.035Z,13.92
2023-04-04T09:36:20.688Z,13.90
2023-04-04T09:37:20.083Z,13.90
2023-04-04T09:38:20.135Z,13.92
2023-04-04T09:39:20.122Z,13.96
2023-04-04T09:40:20.214Z,13.88
2023-04-04T09:41:20.212Z,13.85
2023-04-04T09:42:20.211Z,13.87
2023-04-04T09:43:20.279Z,13.88
2023-04-04T09:44:20.286Z,13.90
2023-04-04T09:45:43.752Z,13.93
2023-04-04T09:46:21.357Z,13.89
2023-04-04T09:47:29.854Z,13.90
2023-04-04T09:48:21.261Z,13.88
2023-04-04T09:49:20.617Z,13.90
2023-04-04T09:50:20.238Z,13.90
2023-04-04T09:51:20.235Z,13.84
2023-04-04T09:52:20.313Z,13.84
2023-04-04T09:53:20.250Z,13.89
2023-04-04T09:54:28.820Z,13.90
2023-04-04T09:55:21.212Z,13.86
2023-04-04T09:56:20.202Z,13.74
2023-04-04T09:57:20.215Z,13.75
2023-04-04T09:58:20.175Z,13.83
2023-04-04T09:59:20.233Z,13.77
2023-04-04T10:00:20.200Z,13.78
2023-04-04T10:01:20.193Z,13.74
2023-04-04T10:02:20.208Z,13.74
2023-04-04T10:03:20.138Z,13.66
2023-04-04T10:04:20.179Z,13.66
2023-04-04T10:05:20.153Z,13.63
2023-04-04T10:06:20.131Z,13.63
2023-04-04T10:07:20.144Z,13.69
2023-04-04T10:08:20.114Z,13.66
2023-04-04T10:09:20.116Z,13.66
2023-04-04T10:10:20.156Z,13.69
2023-04-04T10:11:20.107Z,13.66
2023-04-04T10:12:20.102Z,13.65
2023-04-04T10:13:20.090Z,13.62
2023-04-04T10:14:20.120Z,13.60
2023-04-04T10:15:20.146Z,13.60
2023-04-04T10:16:20.118Z,13.59
2023-04-04T10:17:20.164Z,13.57
2023-04-04T10:18:20.092Z,13.62
2023-04-04T10:19:20.050Z,13.51
2023-04-04T10:20:20.018Z,13.53
2023-04-04T10:21:20.025Z,13.46
2023-04-04T10:22:20.032Z,13.42
2023-04-04T10:23:20.021Z,13.36
2023-04-04T10:24:20.022Z,13.41
2023-04-04T10:25:19.993Z,13.36
2023-04-04T10:26:20.014Z,13.39
2023-04-04T10:27:20.017Z,13.32
2023-04-04T10:28:20.038Z,13.44
2023-04-04T10:29:20.855Z,13.41
2023-04-04T10:30:20.146Z,13.48
2023-04-04T10:31:20.198Z,13.47
2023-04-04T10:32:20.211Z,13.51
2023-04-04T10:33:20.219Z,13.46
2023-04-04T10:34:20.291Z,13.50
2023-04-04T10:35:20.330Z,13.42
2023-04-04T10:36:20.391Z,13.42
2023-04-04T10:37:20.412Z,13.35
2023-04-04T10:38:20.415Z,13.32
2023-04-04T10:39:20.473Z,13.32
2023-04-04T10:40:20.518Z,13.21
2023-04-04T10:41:20.542Z,13.27
2023-04-04T10:42:20.585Z,13.23
2023-04-04T10:43:20.618Z,13.29
2023-04-04T10:44:20.648Z,13.21
2023-04-04T10:45:21.877Z,13.26
2023-04-04T10:46:20.768Z,13.23
2023-04-04T10:47:20.721Z,13.23
2023-04-04T10:48:20.755Z,13.12
2023-04-04T10:49:20.839Z,13.15
2023-04-04T10:50:20.850Z,13.12
2023-04-04T10:51:20.930Z,13.15
2023-04-04T10:52:20.967Z,13.11
2023-04-04T10:53:22.376Z,13.09
2023-04-04T10:54:21.110Z,13.11
2023-04-04T10:55:21.192Z,13.13
2023-04-04T10:56:21.200Z,13.11
2023-04-04T10:57:21.258Z,13.08
2023-04-04T10:58:21.337Z,13.06
2023-04-04T10:59:21.375Z,13.03
2023-04-04T11:00:21.430Z,13.10
2023-04-04T11:01:22.145Z,13.09
2023-04-04T11:02:21.620Z,13.09
2023-04-04T11:03:21.651Z,13.09
2023-04-04T11:04:22.152Z,12.99
2023-04-04T11:05:21.777Z,13.05
2023-04-04T11:06:21.830Z,13.06
2023-04-04T11:07:21.890Z,12.97
2023-04-04T11:08:21.991Z,12.91
2023-04-04T11:09:21.999Z,12.85
2023-04-04T11:10:22.085Z,12.85
2023-04-04T11:11:23.144Z,12.90
2023-04-04T11:12:22.186Z,12.88
2023-04-04T11:13:22.253Z,12.85
2023-04-04T11:14:22.291Z,12.84
2023-04-04T11:15:22.404Z,12.87
2023-04-04T11:16:22.460Z,12.87
2023-04-04T11:17:22.519Z,12.87
2023-04-04T11:19:22.538Z,12.85
2023-04-04T11:20:22.531Z,12.84
2023-04-04T11:21:22.538Z,12.84
2023-04-04T11:22:22.509Z,12.84
2023-04-04T11:23:22.516Z,12.90
2023-04-04T11:24:22.540Z,12.85
2023-04-04T11:25:22.486Z,12.84
2023-04-04T11:26:22.463Z,12.87
2023-04-04T11:27:22.565Z,12.88
2023-04-04T11:28:22.463Z,12.87
2023-04-04T11:29:22.471Z,12.85
2023-04-04T11:30:22.460Z,12.85
2023-04-04T11:31:22.520Z,12.87
2023-04-04T11:32:22.481Z,12.84
2023-04-04T11:33:22.505Z,12.81
2023-04-04T11:34:22.457Z,12.82
2023-04-04T11:35:22.427Z,12.82
2023-04-04T11:36:22.425Z,12.82
2023-04-04T11:37:22.438Z,12.82
2023-04-04T11:38:22.455Z,12.84
2023-04-04T11:39:22.418Z,12.85
2023-04-04T11:40:22.472Z,12.79
2023-04-04T11:41:22.502Z,12.86
2023-04-04T11:42:22.539Z,12.76
2023-04-04T11:43:22.565Z,12.81
2023-04-04T11:44:22.644Z,12.80
2023-04-04T11:45:22.723Z,12.67
2023-04-04T11:46:22.785Z,12.72
2023-04-04T11:47:22.871Z,12.70
2023-04-04T11:48:22.801Z,12.66
2023-04-04T11:49:22.891Z,12.63
2023-04-04T11:50:22.898Z,12.67
2023-04-04T11:51:22.981Z,12.67
2023-04-04T11:52:23.020Z,12.64
2023-04-04T11:53:23.066Z,12.69
2023-04-04T11:54:23.081Z,12.73
2023-04-04T11:55:23.159Z,12.70
2023-04-04T11:56:23.170Z,12.73
2023-04-04T11:57:23.235Z,12.75
2023-04-04T11:58:23.288Z,12.72
2023-04-04T11:59:23.357Z,12.66
2023-04-04T12:00:23.383Z,12.66
2023-04-04T12:01:23.436Z,12.60
2023-04-04T12:02:23.525Z,12.57
2023-04-04T12:03:23.613Z,12.55
2023-04-04T12:04:23.609Z,12.55
2023-04-04T12:05:23.958Z,12.54
2023-04-04T12:06:23.749Z,12.60
2023-04-04T12:07:23.744Z,12.58
2023-04-04T12:08:23.821Z,12.52
2023-04-04T12:09:23.827Z,12.52
2023-04-04T12:10:23.908Z,12.45
2023-04-04T12:11:23.934Z,12.51
2023-04-04T12:12:24.018Z,12.48
2023-04-04T12:13:24.054Z,12.43
2023-04-04T12:14:24.109Z,12.45
2023-04-04T12:15:24.154Z,12.46
2023-04-04T12:16:24.301Z,12.42
2023-04-04T12:17:24.282Z,12.48
2023-04-04T12:18:24.340Z,12.51
2023-04-04T12:19:24.385Z,12.46
2023-04-04T12:20:24.462Z,12.45
2023-04-04T12:21:24.460Z,12.48
2023-04-04T12:22:24.515Z,12.49
2023-04-04T12:23:24.587Z,12.51
2023-04-04T12:24:24.735Z,12.51
2023-04-04T12:25:24.729Z,12.43
2023-04-04T12:26:24.754Z,12.45
2023-04-04T12:27:24.813Z,12.42
2023-04-04T12:28:26.387Z,12.42
2023-04-04T12:29:24.914Z,12.43
2023-04-04T12:30:24.963Z,12.42
2023-04-04T12:31:25.108Z,12.40
2023-04-04T12:32:25.124Z,12.43
2023-04-04T12:33:25.157Z,12.39
2023-04-04T12:34:25.214Z,12.42
2023-04-04T12:35:25.277Z,12.46
2023-04-04T12:36:25.425Z,12.42
2023-04-04T12:37:25.402Z,12.40
2023-04-04T12:38:25.448Z,12.39
2023-04-04T12:39:25.483Z,12.37
2023-04-04T12:40:25.566Z,12.36
2023-04-04T12:41:25.634Z,12.40
2023-04-04T12:42:25.661Z,12.39
2023-04-04T12:43:25.756Z,12.36
2023-04-04T12:44:25.777Z,12.37
2023-04-04T12:45:25.861Z,12.31
2023-04-04T12:46:25.920Z,12.27
2023-04-04T12:47:26.077Z,12.28
2023-04-04T12:48:26.008Z,12.31
2023-04-04T12:49:26.088Z,12.36
2023-04-04T12:50:26.167Z,12.38
2023-04-04T12:51:26.210Z,12.37
2023-04-04T12:52:26.281Z,12.32
2023-04-04T12:53:29.109Z,12.37
2023-04-04T12:54:26.322Z,12.34
2023-04-04T12:55:26.321Z,12.32
2023-04-04T12:56:26.304Z,12.30